createdAt,value
2022-12-20T00:02:26.049Z,8.68
2022-12-20T00:04:52.539Z,7.90
2022-12-20T00:07:18.914Z,7.60
2022-12-20T00:09:45.316Z,8.15
2022-12-20T00:12:11.761Z,11.60
2022-12-20T00:14:38.184Z,11.50
2022-12-20T00:17:04.645Z,9.77
2022-12-20T00:19:31.110Z,9.30
2022-12-20T00:21:57.609Z,9.98
2022-12-20T00:24:26.336Z,8.27
2022-12-20T00:26:53.131Z,9.00
2022-12-20T00:29:19.539Z,8.75
2022-12-20T00:31:46.083Z,8.15
2022-12-20T00:34:12.554Z,9.13
2022-12-20T00:36:40.089Z,9.52
2022-12-20T00:39:06.521Z,9.95
2022-12-20T00:41:34.497Z,10.23
2022-12-20T00:44:02.090Z,9.40
2022-12-20T00:46:29.020Z,9.93
2022-12-20T00:48:56.824Z,9.82
2022-12-20T00:51:27.004Z,10.30
2022-12-20T00:53:54.387Z,9.48
2022-12-20T00:56:21.773Z,9.30
2022-12-20T00:58:48.359Z,9.63
2022-12-20T01:01:30.430Z,9.98
2022-12-20T01:03:57.176Z,9.38
2022-12-20T01:06:25.107Z,10.18
2022-12-20T01:08:52.745Z,10.70
2022-12-20T01:11:24.672Z,9.73
2022-12-20T01:13:55.940Z,10.80
2022-12-20T01:16:37.916Z,10.73
2022-12-20T01:19:05.683Z,8.95
2022-12-20T01:21:32.261Z,9.27
2022-12-20T01:23:58.779Z,8.57
2022-12-20T01:26:28.427Z,8.82
2022-12-20T01:28:59.926Z,8.75
2022-12-20T01:31:28.253Z,7.93
2022-12-20T01:33:54.941Z,8.75
2022-12-20T01:36:27.187Z,8.43
2022-12-20T01:39:06.086Z,7.95
2022-12-20T01:41:33.386Z,7.57
2022-12-20T01:44:02.374Z,8.20
2022-12-20T01:46:31.581Z,8.05
2022-12-20T01:49:13.336Z,8.27
2022-12-20T01:51:44.539Z,8.63
2022-12-20T01:54:25.059Z,8.38
2022-12-20T01:56:58.503Z,8.80
2022-12-20T01:59:26.625Z,8.85
2022-12-20T02:01:53.174Z,10.00
2022-12-20T02:04:19.618Z,9.52
2022-12-20T02:06:46.008Z,10.55
2022-12-20T02:09:12.470Z,10.73
2022-12-20T02:11:58.109Z,11.05
2022-12-20T02:14:36.602Z,10.88
2022-12-20T02:17:21.769Z,12.07
2022-12-20T02:20:00.276Z,11.10
2022-12-20T02:22:57.156Z,11.55
2022-12-20T02:25:55.826Z,10.80
2022-12-20T02:28:45.981Z,11.38
2022-12-20T02:31:17.326Z,10.82
2022-12-20T02:33:47.981Z,11.32
2022-12-20T02:36:18.341Z,10.30
2022-12-20T02:38:45.176Z,10.40
2022-12-20T02:41:26.592Z,10.25
2022-12-20T02:44:18.330Z,9.45
2022-12-20T02:46:45.724Z,9.30
2022-12-20T02:49:16.600Z,9.25
2022-12-20T02:51:45.956Z,9.68
2022-12-20T02:54:13.345Z,9.73
2022-12-20T02:56:47.379Z,9.80
2022-12-20T02:59:16.865Z,9.70
2022-12-20T03:02:03.138Z,10.48
2022-12-20T03:04:32.257Z,10.35
2022-12-20T03:07:12.901Z,10.07
2022-12-20T03:09:41.788Z,9.20
2022-12-20T03:12:11.639Z,9.18
2022-12-20T03:14:39.091Z,8.27
2022-12-20T03:17:06.633Z,9.73
2022-12-20T03:19:33.297Z,8.32
2022-12-20T03:21:59.861Z,7.82
2022-12-20T03:24:27.113Z,8.07
2022-12-20T03:26:53.503Z,8.25
2022-12-20T03:29:19.947Z,8.43
2022-12-20T03:31:46.632Z,7.80
2022-12-20T03:34:13.004Z,7.25
2022-12-20T03:36:39.399Z,7.53
2022-12-20T03:39:05.932Z,7.00
2022-12-20T03:41:32.275Z,8.38
2022-12-20T03:43:58.845Z,8.48
2022-12-20T03:46:25.768Z,8.32
2022-12-20T03:48:52.222Z,8.38
2022-12-20T03:51:18.574Z,10.20
2022-12-20T03:53:44.984Z,8.77
2022-12-20T03:56:11.432Z,8.43
2022-12-20T03:58:37.776Z,7.78
2022-12-20T04:01:19.259Z,8.57
2022-12-20T04:03:45.752Z,8.80
2022-12-20T04:06:12.189Z,8.90
2022-12-20T04:08:38.683Z,9.40
2022-12-20T04:11:17.141Z,8.77
2022-12-20T04:13:44.500Z,9.48
2022-12-20T04:16:12.108Z,9.40
2022-12-20T04:18:38.617Z,8.68
2022-12-20T04:21:07.073Z,8.73
2022-12-20T04:23:35.338Z,7.78
2022-12-20T04:26:03.092Z,7.85
2022-12-20T04:28:29.765Z,7.57
2022-12-20T04:30:56.437Z,8.25
2022-12-20T04:33:23.599Z,8.95
2022-12-20T04:35:50.176Z,8.07
2022-12-20T04:38:16.933Z,8.73
2022-12-20T04:40:43.541Z,8.82
2022-12-20T04:43:10.011Z,8.48
2022-12-20T04:45:36.489Z,9.40
2022-12-20T04:48:21.381Z,8.07
2022-12-20T04:50:50.125Z,8.38
2022-12-20T04:53:35.602Z,9.25
2022-12-20T04:58:29.447Z,8.15
2022-12-20T05:00:55.895Z,8.23
2022-12-20T05:03:23.785Z,9.05
2022-12-20T05:05:50.215Z,9.45
2022-12-20T05:08:16.631Z,8.95
2022-12-20T05:10:43.127Z,8.98
2022-12-20T05:13:09.687Z,8.85
2022-12-20T05:15:37.067Z,9.25
2022-12-20T05:18:04.328Z,9.52
2022-12-20T05:20:31.040Z,8.90
2022-12-20T05:23:16.936Z,11.63
2022-12-20T05:26:06.357Z,12.50
2022-12-20T05:28:33.191Z,10.32
2022-12-20T05:30:59.947Z,10.13
2022-12-20T05:33:33.655Z,8.88
2022-12-20T05:36:00.625Z,9.00
2022-12-20T05:38:27.286Z,9.27
2022-12-20T05:40:53.676Z,9.68
2022-12-20T05:43:20.806Z,9.02
2022-12-20T05:45:52.331Z,8.80
2022-12-20T05:48:20.414Z,8.30
2022-12-20T05:50:47.559Z,8.13
2022-12-20T05:53:15.242Z,8.40
2022-12-20T05:55:51.597Z,7.68
2022-12-20T05:58:18.001Z,7.40
2022-12-20T06:00:45.031Z,7.82
2022-12-20T06:03:12.030Z,7.78
2022-12-20T06:05:39.666Z,8.30
2022-12-20T06:08:07.269Z,9.30
2022-12-20T06:10:34.695Z,8.57
2022-12-20T06:13:02.272Z,9.82
2022-12-20T06:15:29.131Z,9.48
2022-12-20T06:17:55.931Z,10.60
2022-12-20T06:20:22.411Z,9.85
2022-12-20T06:22:48.950Z,9.60
2022-12-20T06:25:15.681Z,9.73
2022-12-20T06:27:42.988Z,9.85
2022-12-20T06:30:10.508Z,9.27
2022-12-20T06:32:36.859Z,9.18
2022-12-20T06:35:03.439Z,8.70
2022-12-20T06:37:30.059Z,9.43
2022-12-20T06:39:56.431Z,9.73
2022-12-20T06:42:22.861Z,10.38
2022-12-20T06:44:49.581Z,9.52
2022-12-20T06:47:15.955Z,9.82
2022-12-20T06:49:42.334Z,9.65
2022-12-20T06:52:08.734Z,9.05
2022-12-20T06:54:35.120Z,10.35
2022-12-20T06:57:01.552Z,9.90
2022-12-20T06:59:27.958Z,9.27
2022-12-20T07:01:54.558Z,10.10
2022-12-20T07:04:21.487Z,9.45
2022-12-20T07:06:47.914Z,9.93
2022-12-20T07:09:14.301Z,9.73
2022-12-20T07:11:40.695Z,9.45
2022-12-20T07:14:07.106Z,8.75
2022-12-20T07:16:33.534Z,8.38
2022-12-20T07:18:59.974Z,9.65
2022-12-20T07:21:26.429Z,9.52
2022-12-20T07:23:53.397Z,8.77
2022-12-20T07:26:19.977Z,8.70
2022-12-20T07:28:46.416Z,9.13
2022-12-20T07:31:12.829Z,8.90
2022-12-20T07:33:39.706Z,8.57
2022-12-20T07:36:09.884Z,9.35
2022-12-20T07:38:36.981Z,8.32
2022-12-20T07:43:37.414Z,7.40
2022-12-20T07:46:05.124Z,7.35
2022-12-20T07:48:31.748Z,8.20
2022-12-20T07:51:03.100Z,7.93
2022-12-20T07:53:31.905Z,8.52
2022-12-20T07:56:00.457Z,8.07
2022-12-20T07:58:28.925Z,8.27
2022-12-20T08:00:56.390Z,8.27
2022-12-20T08:03:37.086Z,7.90
2022-12-20T08:06:07.236Z,8.10
2022-12-20T08:08:36.529Z,7.97
2022-12-20T08:11:04.814Z,9.02
2022-12-20T08:13:32.455Z,9.80
2022-12-20T08:15:58.883Z,9.50
2022-12-20T08:18:25.717Z,9.50
2022-12-20T08:20:52.098Z,9.52
2022-12-20T08:23:19.420Z,9.80
2022-12-20T08:25:45.837Z,9.27
2022-12-20T08:28:12.196Z,8.07
2022-12-20T08:30:38.629Z,8.65
2022-12-20T08:33:05.622Z,7.90
2022-12-20T08:35:32.036Z,9.55
2022-12-20T08:37:58.393Z,8.63
2022-12-20T08:40:24.812Z,8.15
2022-12-20T08:42:51.514Z,7.95
2022-12-20T08:45:19.253Z,7.78
2022-12-20T08:47:45.666Z,7.93
2022-12-20T08:50:13.611Z,7.25
2022-12-20T08:52:40.300Z,8.50
2022-12-20T08:55:06.972Z,7.70
2022-12-20T08:57:33.443Z,8.32
2022-12-20T08:59:59.906Z,8.30
2022-12-20T09:02:26.536Z,8.25
2022-12-20T09:04:53.115Z,7.10
2022-12-20T09:07:19.463Z,6.90
2022-12-20T09:09:47.492Z,5.50
2022-12-20T09:12:13.889Z,5.82
2022-12-20T09:14:40.275Z,6.38
2022-12-20T09:17:06.650Z,5.97
2022-12-20T09:19:33.052Z,6.57
2022-12-20T09:21:59.422Z,6.28
2022-12-20T09:24:25.798Z,6.25
2022-12-20T09:26:52.375Z,6.95
2022-12-20T09:29:26.924Z,7.30
2022-12-20T09:31:53.640Z,6.78
2022-12-20T09:34:20.186Z,6.63
2022-12-20T09:36:46.589Z,7.05
2022-12-20T09:39:12.964Z,8.60
2022-12-20T09:41:44.512Z,7.93
2022-12-20T09:44:34.118Z,8.70
2022-12-20T09:47:30.961Z,8.32
2022-12-20T09:49:57.589Z,8.63
2022-12-20T09:52:30.583Z,7.63
2022-12-20T09:55:30.559Z,9.75
2022-12-20T09:58:30.817Z,8.93
2022-12-20T10:00:58.199Z,9.32
2022-12-20T10:03:31.827Z,9.27
2022-12-20T10:06:05.270Z,9.65
2022-12-20T10:08:43.387Z,8.52
2022-12-20T10:11:26.045Z,8.35
2022-12-20T10:14:18.071Z,9.13
2022-12-20T10:16:54.399Z,9.23
2022-12-20T10:19:43.529Z,8.85
2022-12-20T10:22:19.732Z,8.48
2022-12-20T10:24:56.275Z,8.93
2022-12-20T10:27:22.914Z,8.18
2022-12-20T10:29:51.597Z,8.10
2022-12-20T10:32:23.663Z,8.40
2022-12-20T10:34:59.800Z,7.45
2022-12-20T10:37:26.292Z,7.80
2022-12-20T10:39:52.934Z,6.93
2022-12-20T10:42:34.282Z,6.10
2022-12-20T10:45:00.844Z,6.47
2022-12-20T10:47:42.179Z,6.15
2022-12-20T10:50:21.016Z,6.47
2022-12-20T10:53:19.256Z,6.43
2022-12-20T10:55:45.777Z,5.60
2022-12-20T10:58:31.919Z,5.70
2022-12-20T11:01:12.847Z,5.63
2022-12-20T11:04:18.025Z,5.95
2022-12-20T11:06:45.637Z,6.38
2022-12-20T11:09:35.081Z,6.63
2022-12-20T11:12:16.435Z,6.15
2022-12-20T11:14:45.411Z,5.28
2022-12-20T11:17:14.818Z,6.03
2022-12-20T11:20:12.500Z,5.78
2022-12-20T11:23:17.327Z,5.57
2022-12-20T11:26:02.077Z,5.35
2022-12-20T11:28:34.280Z,5.22
2022-12-20T11:31:54.522Z,5.18
2022-12-20T11:35:08.935Z,4.68
2022-12-20T11:37:56.042Z,4.88
2022-12-20T11:40:36.935Z,4.82
2022-12-20T11:43:30.696Z,4.65
2022-12-20T11:46:30.783Z,4.15
2022-12-20T11:49:20.821Z,3.83
2022-12-20T11:51:50.906Z,3.05
2022-12-20T11:54:29.256Z,3.40
2022-12-20T11:57:03.611Z,3.53
2022-12-20T11:59:42.669Z,3.00
2022-12-20T12:02:43.967Z,3.40
2022-12-20T12:05:39.870Z,2.95
2022-12-20T12:08:18.196Z,3.42
2022-12-20T12:10:56.298Z,2.75
2022-12-20T12:13:30.118Z,2.78
2022-12-20T12:16:27.790Z,2.58
2022-12-20T12:18:54.605Z,3.08
2022-12-20T12:21:23.299Z,2.58
2022-12-20T12:24:27.551Z,2.55
2022-12-20T12:26:54.173Z,2.85
2022-12-20T12:29:22.112Z,3.00
2022-12-20T12:31:49.021Z,3.05
2022-12-20T12:34:50.172Z,2.55
2022-12-20T12:37:41.267Z,2.35
2022-12-20T12:40:07.692Z,2.40
2022-12-20T12:42:55.677Z,2.60
2022-12-20T12:45:37.556Z,2.47
2022-12-20T12:48:24.332Z,2.35
2022-12-20T12:50:55.297Z,2.22
2022-12-20T12:53:38.026Z,2.50
2022-12-20T12:56:43.073Z,2.35
2022-12-20T12:59:22.885Z,2.40
2022-12-20T13:02:16.192Z,2.58
2022-12-20T13:05:01.673Z,2.85
2022-12-20T13:07:35.110Z,2.20
2022-12-20T13:10:25.588Z,2.78
2022-12-20T13:12:52.419Z,2.08
2022-12-20T13:15:21.611Z,2.00
2022-12-20T13:17:57.088Z,2.33
2022-12-20T13:20:32.047Z,2.58
2022-12-20T13:23:11.427Z,2.50
2022-12-20T13:25:43.787Z,2.22
2022-12-20T13:28:19.501Z,2.33
2022-12-20T13:30:48.132Z,2.50
2022-12-20T13:33:38.554Z,2.97
2022-12-20T13:36:10.987Z,2.22
2022-12-20T13:38:53.911Z,3.10
2022-12-20T13:41:45.552Z,2.53
2022-12-20T13:44:15.105Z,2.55
2022-12-20T13:47:03.459Z,2.67
2022-12-20T13:49:36.319Z,2.65
2022-12-20T13:52:11.667Z,2.50
2022-12-20T13:54:44.456Z,3.33
2022-12-20T13:57:30.844Z,3.45
2022-12-20T14:00:06.416Z,3.15
2022-12-20T14:02:40.205Z,3.00
2022-12-20T14:05:17.131Z,3.28
2022-12-20T14:07:46.688Z,3.42
2022-12-20T14:10:18.772Z,4.90
2022-12-20T14:12:46.403Z,3.30
2022-12-20T14:15:34.155Z,2.80
2022-12-20T14:18:27.620Z,3.10
2022-12-20T14:20:59.203Z,3.28
2022-12-20T14:23:40.503Z,3.75
2022-12-20T14:26:12.926Z,3.20
2022-12-20T14:28:44.530Z,3.08
2022-12-20T14:31:34.799Z,2.97
2022-12-20T14:34:16.580Z,2.95
2022-12-20T14:36:48.534Z,2.90
2022-12-20T14:39:22.713Z,5.60
2022-12-20T14:41:56.540Z,3.40
2022-12-20T14:44:24.046Z,2.92
2022-12-20T14:47:10.075Z,2.83
2022-12-20T14:49:38.508Z,2.92
2022-12-20T14:52:20.316Z,2.97
2022-12-20T14:55:11.150Z,2.55
2022-12-20T14:57:40.051Z,2.67
2022-12-20T15:00:23.244Z,3.05
2022-12-20T15:02:56.013Z,2.67
2022-12-20T15:05:34.929Z,2.70
2022-12-20T15:11:37.811Z,2.50
2022-12-20T15:14:43.454Z,3.38
2022-12-20T15:17:17.466Z,3.27
2022-12-20T15:20:21.941Z,3.92
2022-12-20T15:23:03.344Z,3.53
2022-12-20T15:25:56.995Z,4.25
2022-12-20T15:28:33.132Z,3.95
2022-12-20T15:31:11.842Z,4.00
2022-12-20T15:36:46.055Z,3.75
2022-12-20T15:39:14.182Z,3.60
2022-12-20T15:42:06.483Z,3.58
2022-12-20T15:44:58.254Z,3.90
2022-12-20T15:47:25.571Z,4.15
2022-12-20T15:50:10.758Z,3.72
2022-12-20T15:52:43.780Z,3.53
2022-12-20T15:55:17.946Z,3.33
2022-12-20T15:57:49.448Z,3.65
2022-12-20T16:00:34.345Z,3.88
2022-12-20T16:03:08.566Z,3.65
2022-12-20T16:06:03.957Z,3.45
2022-12-20T16:08:33.585Z,3.95
2022-12-20T16:13:55.070Z,3.42
2022-12-20T16:16:27.143Z,3.85
2022-12-20T16:18:53.837Z,3.80
2022-12-20T16:21:25.742Z,4.75
2022-12-20T16:23:53.376Z,4.40
2022-12-20T16:26:22.907Z,4.13
2022-12-20T16:28:51.290Z,3.67
2022-12-20T16:31:39.544Z,3.78
2022-12-20T16:34:12.291Z,3.92
2022-12-20T16:36:38.671Z,8.43
2022-12-20T16:39:05.171Z,6.75
2022-12-20T16:41:33.778Z,6.30
2022-12-20T16:44:01.998Z,8.02
2022-12-20T16:46:30.217Z,8.30
2022-12-20T16:48:58.157Z,9.73
2022-12-20T16:51:25.971Z,6.75
2022-12-20T16:56:44.287Z,4.88
2022-12-20T16:59:20.754Z,5.18
2022-12-20T17:01:51.064Z,4.68
2022-12-20T17:04:18.952Z,4.90
2022-12-20T17:06:46.617Z,6.25
2022-12-20T17:09:13.432Z,4.70
2022-12-20T17:11:39.820Z,5.57
2022-12-20T17:14:12.356Z,4.68
2022-12-20T17:16:39.873Z,5.00
2022-12-20T17:19:06.485Z,5.60
2022-12-20T17:24:28.643Z,5.22
2022-12-20T17:26:55.324Z,4.63
2022-12-20T17:29:22.054Z,4.28
2022-12-20T17:31:49.862Z,4.13
2022-12-20T17:34:28.300Z,4.70
2022-12-20T17:37:16.559Z,4.95
2022-12-20T17:39:43.084Z,5.78
2022-12-20T17:42:12.877Z,4.88
2022-12-20T17:44:39.328Z,5.05
2022-12-20T17:47:06.408Z,5.53
2022-12-20T17:49:33.022Z,4.78
2022-12-20T17:51:59.377Z,5.03
2022-12-20T17:54:28.081Z,4.90
2022-12-20T17:56:57.366Z,4.70
2022-12-20T17:59:25.689Z,4.32
2022-12-20T18:01:52.357Z,4.32
2022-12-20T18:04:19.127Z,4.57
2022-12-20T18:06:48.890Z,4.32
2022-12-20T18:09:20.919Z,3.92
2022-12-20T18:11:48.285Z,4.32
2022-12-20T18:14:15.429Z,4.32
2022-12-20T18:16:42.191Z,4.32
2022-12-20T18:19:15.671Z,4.32
2022-12-20T18:21:42.307Z,3.90
2022-12-20T18:24:13.642Z,3.38
2022-12-20T18:26:40.763Z,4.35
2022-12-20T18:29:07.391Z,3.92
2022-12-20T18:31:34.827Z,4.95
2022-12-20T18:34:02.150Z,6.68
2022-12-20T18:36:32.247Z,7.63
2022-12-20T18:39:00.120Z,9.13
2022-12-20T18:41:29.793Z,9.68
2022-12-20T18:44:05.471Z,9.10
2022-12-20T18:46:38.948Z,6.90
2022-12-20T18:49:05.722Z,5.78
2022-12-20T18:51:38.590Z,12.77
2022-12-20T18:54:07.486Z,7.35
2022-12-20T18:56:36.784Z,5.72
2022-12-20T18:59:10.689Z,4.13
2022-12-20T19:01:38.638Z,5.97
2022-12-20T19:04:08.262Z,5.60
2022-12-20T19:06:35.844Z,10.23
2022-12-20T19:09:05.184Z,8.68
2022-12-20T19:11:31.809Z,9.25
2022-12-20T19:13:58.264Z,4.60
2022-12-20T19:16:28.802Z,5.10
2022-12-20T19:18:55.203Z,6.18
2022-12-20T19:21:24.641Z,5.50
2022-12-20T19:23:54.644Z,5.35
2022-12-20T19:26:23.041Z,4.80
2022-12-20T19:28:49.812Z,3.80
2022-12-20T19:31:22.053Z,4.30
2022-12-20T19:33:50.688Z,4.03
2022-12-20T19:36:20.441Z,3.45
2022-12-20T19:38:50.191Z,3.00
2022-12-20T19:41:18.043Z,5.38
2022-12-20T19:43:44.825Z,9.70
2022-12-20T19:46:11.441Z,9.73
2022-12-20T19:48:38.056Z,6.95
2022-12-20T19:51:11.614Z,3.80
2022-12-20T19:53:40.073Z,3.30
2022-12-20T19:56:08.645Z,3.47
2022-12-20T19:58:36.372Z,3.53
2022-12-20T20:01:05.465Z,3.70
2022-12-20T20:03:32.606Z,3.40
2022-12-20T20:05:59.603Z,3.92
2022-12-20T20:08:26.061Z,4.50
2022-12-20T20:10:53.921Z,4.95
2022-12-20T20:13:20.454Z,2.67
2022-12-20T20:15:54.977Z,3.88
2022-12-20T20:18:23.832Z,3.40
2022-12-20T20:20:50.241Z,3.03
2022-12-20T20:23:16.821Z,2.97
2022-12-20T20:25:47.084Z,3.05
2022-12-20T20:28:13.871Z,3.08
2022-12-20T20:30:45.265Z,3.38
2022-12-20T20:33:12.364Z,2.95
2022-12-20T20:35:39.901Z,2.92
2022-12-20T20:38:07.812Z,2.90
2022-12-20T20:40:34.256Z,3.33
2022-12-20T20:43:01.961Z,3.35
2022-12-20T20:45:29.101Z,3.40
2022-12-20T20:47:57.380Z,3.30
2022-12-20T20:50:26.411Z,3.25
2022-12-20T20:52:52.871Z,3.28
2022-12-20T20:55:19.391Z,2.90
2022-12-20T20:57:45.874Z,3.53
2022-12-20T21:00:12.818Z,2.97
2022-12-20T21:02:39.562Z,3.35
2022-12-20T21:05:58.618Z,3.00
2022-12-20T21:07:53.671Z,3.40
2022-12-20T21:10:23.663Z,3.10
2022-12-20T21:12:50.523Z,3.45
2022-12-20T21:15:23.436Z,3.58
2022-12-20T21:17:50.592Z,3.25
2022-12-20T21:20:20.719Z,3.22
2022-12-20T21:22:50.383Z,3.75
2022-12-20T21:25:17.219Z,3.33
2022-12-20T21:27:43.621Z,3.15
2022-12-20T21:30:10.370Z,3.67
2022-12-20T21:32:36.842Z,2.60
2022-12-20T21:35:03.454Z,3.20
2022-12-20T21:37:30.523Z,3.08
2022-12-20T21:39:57.012Z,4.03
2022-12-20T21:42:23.497Z,3.20
2022-12-20T21:44:49.896Z,3.88
2022-12-20T21:47:16.352Z,3.35
2022-12-20T21:49:42.847Z,3.40
2022-12-20T21:52:09.334Z,3.25
2022-12-20T21:54:35.842Z,5.60
2022-12-20T21:57:02.257Z,4.65
2022-12-20T21:59:28.684Z,3.83
2022-12-20T22:01:55.226Z,3.25
2022-12-20T22:04:22.076Z,3.30
2022-12-20T22:06:48.563Z,3.80
2022-12-20T22:09:17.054Z,4.55
2022-12-20T22:11:43.504Z,3.85
2022-12-20T22:14:12.232Z,3.88
2022-12-20T22:16:38.614Z,4.43
2022-12-20T22:19:05.184Z,3.85
2022-12-20T22:21:33.227Z,3.80
2022-12-20T22:24:00.839Z,3.90
2022-12-20T22:26:29.811Z,4.07
2022-12-20T22:29:03.622Z,3.55
2022-12-20T22:31:30.874Z,3.80
2022-12-20T22:33:58.384Z,3.88
2022-12-20T22:36:26.004Z,3.78
2022-12-20T22:38:56.797Z,3.65
2022-12-20T22:41:26.506Z,3.65
2022-12-20T22:43:53.721Z,3.97
2022-12-20T22:46:20.636Z,3.83
2022-12-20T22:48:47.587Z,3.78
2022-12-20T22:51:19.848Z,3.55
2022-12-20T22:53:50.235Z,3.50
2022-12-20T22:56:18.336Z,3.17
2022-12-20T22:58:44.920Z,3.20
2022-12-20T23:01:13.531Z,3.03
2022-12-20T23:03:40.212Z,3.00
2022-12-20T23:06:08.808Z,3.08
2022-12-20T23:08:37.274Z,3.42
2022-12-20T23:11:23.409Z,3.08
2022-12-20T23:14:08.156Z,3.20
2022-12-20T23:16:37.195Z,3.40
2022-12-20T23:19:03.618Z,3.83
2022-12-20T23:21:48.756Z,3.28
2022-12-20T23:24:15.807Z,2.88
2022-12-20T23:26:43.380Z,3.00
2022-12-20T23:29:11.381Z,3.17
2022-12-20T23:31:37.997Z,2.88
2022-12-20T23:34:04.735Z,2.95
2022-12-20T23:36:33.262Z,2.88
2022-12-20T23:39:00.590Z,3.33
2022-12-20T23:41:27.090Z,2.95
2022-12-20T23:43:53.651Z,3.10
2022-12-20T23:46:21.721Z,3.10
2022-12-20T23:48:50.939Z,2.70
2022-12-20T23:51:18.118Z,3.03
2022-12-20T23:53:44.833Z,3.78
2022-12-20T23:56:14.889Z,6.70
2022-12-20T23:58:42.270Z,4.32
